Map

Track Data

SID SEASON NUMBER BASIN SUBBASIN NAME ISO_TIME NATURE LAT LON WMO_WIND WMO_PRES WMO_AGENCY TRACK_TYPE DIST2LAND LANDFALL IFLAG USA_AGENCY USA_ATCF_ID USA_LAT USA_LON USA_RECORD USA_STATUS USA_WIND USA_PRES USA_SSHS USA_R34_NE USA_R34_SE USA_R34_SW USA_R34_NW USA_R50_NE USA_R50_SE USA_R50_SW USA_R50_NW USA_R64_NE USA_R64_SE USA_R64_SW USA_R64_NW USA_POCI USA_ROCI USA_RMW USA_EYE TOKYO_LAT TOKYO_LON TOKYO_GRADE TOKYO_WIND TOKYO_PRES TOKYO_R50_DIR TOKYO_R50_LONG TOKYO_R50_SHORT TOKYO_R30_DIR TOKYO_R30_LONG TOKYO_R30_SHORT TOKYO_LAND CMA_LAT CMA_LON CMA_CAT CMA_WIND CMA_PRES HKO_LAT HKO_LON HKO_CAT HKO_WIND HKO_PRES NEWDELHI_LAT NEWDELHI_LON NEWDELHI_GRADE NEWDELHI_WIND NEWDELHI_PRES NEWDELHI_CI NEWDELHI_DP NEWDELHI_POCI REUNION_LAT REUNION_LON REUNION_TYPE REUNION_WIND REUNION_PRES REUNION_TNUM REUNION_CI REUNION_RMW REUNION_R34_NE REUNION_R34_SE REUNION_R34_SW REUNION_R34_NW REUNION_R50_NE REUNION_R50_SE REUNION_R50_SW REUNION_R50_NW REUNION_R64_NE REUNION_R64_SE REUNION_R64_SW REUNION_R64_NW BOM_LAT BOM_LON BOM_TYPE BOM_WIND BOM_PRES BOM_TNUM BOM_CI BOM_RMW BOM_R34_NE BOM_R34_SE BOM_R34_SW BOM_R34_NW BOM_R50_NE BOM_R50_SE BOM_R50_SW BOM_R50_NW BOM_R64_NE BOM_R64_SE BOM_R64_SW BOM_R64_NW BOM_ROCI BOM_POCI BOM_EYE BOM_POS_METHOD BOM_PRES_METHOD NADI_LAT NADI_LON NADI_CAT NADI_WIND NADI_PRES WELLINGTON_LAT WELLINGTON_LON WELLINGTON_WIND WELLINGTON_PRES DS824_LAT DS824_LON DS824_STAGE DS824_WIND DS824_PRES TD9636_LAT TD9636_LON TD9636_STAGE TD9636_WIND TD9636_PRES TD9635_LAT TD9635_LON TD9635_WIND TD9635_PRES TD9635_ROCI NEUMANN_LAT NEUMANN_LON NEUMANN_CLASS NEUMANN_WIND NEUMANN_PRES MLC_LAT MLC_LON MLC_CLASS MLC_WIND MLC_PRES USA_GUST BOM_GUST BOM_GUST_PER REUNION_GUST REUNION_GUST_PER USA_SEAHGT USA_SEARAD_NE USA_SEARAD_SE USA_SEARAD_SW USA_SEARAD_NW STORM_SPEED STORM_DIR
1963089N08145 1963 34 WP MM NOT_NAMED 1963-03-30 06:00:00 TS 8.10000 145.000 main 1156 1156 __O___________ -1 8.10000 145.000 0 1006 8 270
1963089N08145 1963 34 WP MM NOT_NAMED 1963-03-30 09:00:00 TS 8.10260 144.590 main 1164 1164 __P___________ -1 8.10260 144.590 0 1006 8 270
1963089N08145 1963 34 WP MM NOT_NAMED 1963-03-30 12:00:00 TS 8.10000 144.200 main 1173 1173 __O___________ -1 8.10000 144.200 0 1006 7 269
1963089N08145 1963 34 WP MM NOT_NAMED 1963-03-30 15:00:00 TS 8.09245 143.842 main 1184 1184 __P___________ -1 8.09245 143.842 0 1006 7 270
1963089N08145 1963 34 WP MM NOT_NAMED 1963-03-30 18:00:00 TS 8.10000 143.500 main 1193 1193 __O___________ -1 8.10000 143.500 0 1006 7 274
1963089N08145 1963 34 WP MM NOT_NAMED 1963-03-30 21:00:00 TS 8.13488 143.180 main 1203 1203 __P___________ -1 8.13488 143.180 0 1005 7 278
1963089N08145 1963 34 WP MM NOT_NAMED 1963-03-31 00:00:00 TS 8.20000 142.800 main 1209 1197 __O___________ -1 8.20000 142.800 1 23 1004 9 279
1963089N08145 1963 34 WP MM NOT_NAMED 1963-03-31 03:00:00 TS 8.27750 142.287 main 1199 1182 __P___________ -1 8.27750 142.287 1 26 1003 11 280
1963089N08145 1963 34 WP MM NOT_NAMED 1963-03-31 06:00:00 TS 8.40000 141.700 main 1185 1178 __O___________ -1 8.40000 141.700 1 29 1002 12 285
1963089N08145 1963 34 WP MM NOT_NAMED 1963-03-31 09:00:00 TS 8.57741 141.115 main 1187 1181 __P___________ -1 8.57741 141.115 1 29 1002 13 289
1963089N08145 1963 34 WP MM NOT_NAMED 1963-03-31 12:00:00 TS 8.80000 140.500 main 1190 1184 __O___________ -1 8.80000 140.500 1 29 1002 13 291
1963089N08145 1963 34 WP MM NOT_NAMED 1963-03-31 15:00:00 TS 9.04984 139.872 main 1184 1182 __P___________ -1 9.04984 139.872 1 29 1002 14 291
1963089N08145 1963 34 WP MM NOT_NAMED 1963-03-31 18:00:00 TS 9.30000 139.200 main 1189 1185 __O___________ -1 9.30000 139.200 1 29 1002 15 290
1963089N08145 1963 34 WP MM NOT_NAMED 1963-03-31 21:00:00 TS 9.54493 138.465 main 1187 1186 __P___________ -1 9.54493 138.465 1 29 1002 15 285
1963089N08145 1963 34 WP MM NOT_NAMED 1963-04-01 00:00:00 TS 9.70000 137.700 main 1188 1154 __O___________ -1 9.70000 137.700 1 29 1002 15 274
1963089N08145 1963 34 WP MM NOT_NAMED 1963-04-01 03:00:00 TS 9.65759 136.905 main 1154 1077 __P___________ -1 9.65759 136.905 1 29 1002 15 266
1963089N08145 1963 34 WP MM NOT_NAMED 1963-04-01 06:00:00 TS 9.60000 136.200 main 1077 1025 __O___________ -1 9.60000 136.200 1 29 1002 12 272
1963089N08145 1963 34 WP MM NOT_NAMED 1963-04-01 09:00:00 TS 9.70485 135.660 main 1025 987 __P___________ -1 9.70485 135.660 1 29 1002 9 289
1963089N08145 1963 34 WP MM NOT_NAMED 1963-04-01 12:00:00 TS 9.90000 135.300 main 987 969 __O___________ -1 9.90000 135.300 1 29 1002 7 307
1963089N08145 1963 34 WP MM NOT_NAMED 1963-04-01 15:00:00 TS 10.1274 135.090 main 972 964 __P___________ -1 10.1274 135.090 1 29 1002 6 329
1963089N08145 1963 34 WP MM NOT_NAMED 1963-04-01 18:00:00 TS 10.4000 135.000 main 971 962 __O___________ -1 10.4000 135.000 1 29 1002 6 340
1963089N08145 1963 34 WP MM NOT_NAMED 1963-04-01 21:00:00 TS 10.6775 134.890 main 966 966 __P___________ -1 10.6775 134.890 1 29 1002 6 351
1963089N08145 1963 34 WP MM NOT_NAMED 1963-04-02 00:00:00 TS 11.0000 134.900 main 974 974 __O___________ -1 11.0000 134.900 1 29 1002 7 19
1963089N08145 1963 34 WP MM NOT_NAMED 1963-04-02 03:00:00 TS 11.3626 135.135 main 1005 1005 __P___________ -1 11.3626 135.135 1 29 1002 9 32
1963089N08145 1963 34 WP MM NOT_NAMED 1963-04-02 06:00:00 TS 11.8000 135.400 main 1047 1047 __O___________ -1 11.8000 135.400 1 29 1002 10 21
1963089N08145 1963 34 WP MM NOT_NAMED 1963-04-02 09:00:00 TS 12.3125 135.502 main 1067 1067 __P___________ -1 12.3125 135.502 1 29 1002 11 5
1963089N08145 1963 34 WP MM NOT_NAMED 1963-04-02 12:00:00 TS 12.9000 135.500 main 1077 1072 __O___________ -1 12.9000 135.500 1 29 1002 12 355
1963089N08145 1963 34 WP MM NOT_NAMED 1963-04-02 15:00:00 TS 13.5350 135.385 main 1080 1077 __P___________ -1 13.5350 135.385 1 29 1002 13 351
1963089N08145 1963 34 WP MM NOT_NAMED 1963-04-02 18:00:00 TS 14.2000 135.300 main 1084 1084 __O___________ -1 14.2000 135.300 1 29 1002 14 1
1963089N08145 1963 34 WP MM NOT_NAMED 1963-04-02 21:00:00 TS 14.8800 135.412 main 1112 1112 __P___________ -1 14.8800 135.412 1 29 1002 13 13
1963089N08145 1963 34 WP MM NOT_NAMED 1963-04-03 00:00:00 TS 15.5000 135.600 main 1151 1151 __O___________ -1 15.5000 135.600 1 29 1002 12 16
1963089N08145 1963 34 WP MM NOT_NAMED 1963-04-03 03:00:00 TS 16.0100 135.758 main 1189 1189 __P___________ -1 16.0100 135.758 1 29 1001 10 18
1963089N08145 1963 34 WP MM NOT_NAMED 1963-04-03 06:00:00 TS 16.4000 135.900 main 1215 1215 __O___________ -1 16.4000 135.900 1 29 1001 7 21
1963089N08145 1963 34 WP MM NOT_NAMED 1963-04-03 09:00:00 TS 16.6875 136.030 main 1237 1237 __P___________ -1 16.6875 136.030 1 29 1001 5 21
1963089N08145 1963 34 WP MM NOT_NAMED 1963-04-03 12:00:00 TS 16.9000 136.100 main 1256 1256 __O___________ -1 16.9000 136.100 1 29 1002 4 8
1963089N08145 1963 34 WP MM NOT_NAMED 1963-04-03 15:00:00 TS 17.1225 136.088 main 1265 1260 __P___________ -1 17.1225 136.088 1 26 1003 4 347
1963089N08145 1963 34 WP MM NOT_NAMED 1963-04-03 18:00:00 TS 17.3000 136.000 main 1265 1260 __O___________ -1 17.3000 136.000 1 23 1004 4 327
1963089N08145 1963 34 WP MM NOT_NAMED 1963-04-03 21:00:00 TS 17.4300 135.880 main 1260 1246 __P___________ -1 17.4300 135.880 1 23 1004 4 305
1963089N08145 1963 34 WP MM NOT_NAMED 1963-04-04 00:00:00 TS 17.5000 135.700 main 1246 1227 __O___________ -1 17.5000 135.700 1 23 1004 4 283
1963089N08145 1963 34 WP MM NOT_NAMED 1963-04-04 03:00:00 TS 17.5225 135.472 main 1227 1199 __P___________ -1 17.5225 135.472 1 23 1005 5 270
1963089N08145 1963 34 WP MM NOT_NAMED 1963-04-04 06:00:00 TS 17.5000 135.200 main 1199 1171 __O___________ -1 17.5000 135.200 1 23 1006 5 265
1963089N08145 1963 34 WP MM NOT_NAMED 1963-04-04 09:00:00 TS 17.4725 134.900 main 1171 1138 __P___________ -1 17.4725 134.900 1 23 1006 6 260
1963089N08145 1963 34 WP MM NOT_NAMED 1963-04-04 12:00:00 TS 17.4000 134.600 main 1138 1114 __O___________ -1 17.4000 134.600 1 23 1006 6 249
1963089N08145 1963 34 WP MM NOT_NAMED 1963-04-04 15:00:00 TS 17.2724 134.343 main 1105 1075 __P___________ -1 17.2724 134.343 1 23 1006 6 238
1963089N08145 1963 34 WP MM NOT_NAMED 1963-04-04 18:00:00 TS 17.1000 134.100 main 1075 1046 __O___________ -1 17.1000 134.100 1 23 1006 6 231
1963089N08145 1963 34 WP MM NOT_NAMED 1963-04-04 21:00:00 TS 16.8925 133.850 main 1036 1007 __P___________ -1 16.8925 133.850 1 23 1006 6 230
1963089N08145 1963 34 WP MM NOT_NAMED 1963-04-05 00:00:00 TS 16.7000 133.600 main 1007 983 __O___________ -1 16.7000 133.600 1 23 1006 6 238
1963089N08145 1963 34 WP MM NOT_NAMED 1963-04-05 03:00:00 TS 16.5925 133.350 main 983 949 __P___________ -1 16.5925 133.350 1 23 1006 5 247
1963089N08145 1963 34 WP MM NOT_NAMED 1963-04-05 06:00:00 TS 16.5000 133.100 main 949 925 __O___________ -1 16.5000 133.100 1 23 1006 5 243
1963089N08145 1963 34 WP MM NOT_NAMED 1963-04-05 09:00:00 TS 16.3574 132.865 main 925 886 __P___________ -1 16.3574 132.865 1 23 1006 6 238
1963089N08145 1963 34 WP MM NOT_NAMED 1963-04-05 12:00:00 TS 16.2000 132.600 main 886 847 __O___________ -1 16.2000 132.600 1 23 1006 7 240
1963089N08145 1963 34 WP MM NOT_NAMED 1963-04-05 15:00:00 TS 16.0350 132.272 main 847 805 __P___________ -1 16.0350 132.272 1 23 1006 7 246
1963089N08145 1963 34 WP MM NOT_NAMED 1963-04-05 18:00:00 TS 15.9000 131.900 main 805 771 __O___________ -1 15.9000 131.900 1 23 1006 7 253
1963089N08145 1963 34 WP MM NOT_NAMED 1963-04-05 21:00:00 TS 15.8272 131.545 main 762 726 __P___________ -1 15.8272 131.545 1 21 1007 8 263
1963089N08145 1963 34 WP MM NOT_NAMED 1963-04-06 00:00:00 TS 15.8000 131.100 main 726 673 __O___________ -1 15.8000 131.100 0 19 1008 10 268
1963089N08145 1963 34 WP MM NOT_NAMED 1963-04-06 03:00:00 TS 15.7926 130.488 main 673 614 __P___________ -1 15.7926 130.488 0 1008 13 270
1963089N08145 1963 34 WP MM NOT_NAMED 1963-04-06 06:00:00 TS 15.8000 129.800 main 614 558 __O___________ -1 15.8000 129.800 0 1008 13 270
1963089N08145 1963 34 WP MM NOT_NAMED 1963-04-06 09:00:00 TS 15.7922 129.157 main 558 489 __P___________ -1 15.7922 129.157 0 1008 13 270
1963089N08145 1963 34 WP MM NOT_NAMED 1963-04-06 12:00:00 TS 15.8000 128.500 main 489 422 __O___________ -1 15.8000 128.500 0 1008 14 272
1963089N08145 1963 34 WP MM NOT_NAMED 1963-04-06 15:00:00 TS 15.8428 127.755 main 422 366 __P___________ -1 15.8428 127.755 0 1008 14 274
1963089N08145 1963 34 WP MM NOT_NAMED 1963-04-06 18:00:00 TS 15.9000 127.100 main 366 333 __O___________ -1 15.9000 127.100 0 1008 10 274
1963089N08145 1963 34 WP MM NOT_NAMED 1963-04-06 21:00:00 TS 15.9197 126.675 main 333 317 __P___________ -1 15.9197 126.675 0 1008 7 278
1963089N08145 1963 34 WP MM NOT_NAMED 1963-04-07 00:00:00 TS 16.0000 126.400 main 317 310 __O___________ -1 16.0000 126.400 0 1008 6 302
1963089N08145 1963 34 WP MM NOT_NAMED 1963-04-07 03:00:00 TS 16.2101 126.188 main 319 319 __P___________ -1 16.2101 126.188 0 1008 6 322
1963089N08145 1963 34 WP MM NOT_NAMED 1963-04-07 06:00:00 TS 16.5000 126.000 main 334 __O___________ -1 16.5000 126.000 0 1008 7 328

Digital Typhoon Data and Search

About IBTrACS Database

This database is a web-friendly format of International Best Track Archive for Climate Stewardship (IBTrACS), a global best track data archive curated by NOAA dating back to 1842.

Updated: 2021-10-21